Estación Meteorológica Peña el Pijo (Robertgarden) [ 02/03/23 04:26:24 CET ]

Fecha Hora Presion(HPa) Temp (°C) Humedad % Rocio (°C) Viento ( m/s) Direccion Lluvia 1Hora(mm) Lluvia 24H(mm) LLuvia Total(mm)
2012-Dec-29 01:01:13 1019.300 -4.1 65 -9.8         178.19
2012-Dec-29 02:03:15 1018.800 -4.7 67 -9.9         178.19
2012-Dec-29 03:01:13 1018.300 -5.4 68 -10.4         178.19
2012-Dec-29 04:01:18 1017.500 -5.8 71 -10.2         178.19
2012-Dec-29 05:01:12 1016.900 -5.8 72 -10.1         178.19
2012-Dec-29 06:01:19 1016.700 -3.6 66 -9.1         178.19
2012-Dec-29 07:01:17 1016.900 -1.2 49 -10.6         178.19
2012-Dec-29 08:01:13 1016.800 -2.2 51 -11.0         178.19
2012-Dec-29 09:01:12 1016.900 -3.7 59 -10.6         178.19
2012-Dec-29 10:01:19 1017.000 3.4 47 -6.9         178.19
2012-Dec-29 11:01:14 1016.500 10.7 31 -5.8         178.19
2012-Dec-29 12:01:14 1016.200 15.5 17 -9.9         178.19
2012-Dec-29 13:01:14 1015.600 15.9 14 -12.2         178.19
2012-Dec-29 14:01:13 1014.600 16.1 13 -12.9         178.19
2012-Dec-29 15:01:11 1014.200 16.1 13 -12.9         178.19
2012-Dec-29 16:01:11 1014.600 14.3 15 -12.7         178.19
2012-Dec-29 17:01:11 1014.800 10.6 23 -9.9         178.19
2012-Dec-29 18:01:15 1015.600 8.3 32 -7.5         178.19
2012-Dec-29 19:01:14 1016.500 6.8 39 -6.2         178.19
2012-Dec-29 20:01:13 1016.700 6.1 52 -3.0         178.19
2012-Dec-29 21:01:12 1017.000 6.4 58 -1.3         178.19
2012-Dec-29 22:01:18 1017.000 6.4 64 0.1         178.19
2012-Dec-29 23:01:13 1017.500 6.1 71 1.3         178.19

Temperatura Máxima:16°    Temperatura Mínima:-5°
Presión Máxima:1019.300 Hpa    Presión Mínima:1014.200 Hpa


Volver